Isle La Motte, VT

3:36 AM EST on November 29, 2014 (GMT -0500)
Burlington International | Change Station
CLOSE
Current Station
Airport
Location: Burlington,
Elevation: 341 ft
Nearby Weather Stations

Elev 341 ft 44.47 °N, 73.15 °W | Updated 42 minutes ago

Mostly Cloudy
Mostly Cloudy
19 °F
Feels Like 14 °F
N
4
Wind Variable Wind from South

Today
High -- | Low -- °F
--% Chance of Precip.
Yesterday
High -- | Low -- °F
Precip. -- in
7:08 AM 4:14 PM
Waxing Crescent, 49% visible
Pressure 30.25 in
Visibility 10.0 miles
Clouds Overcast 3700 ft
Windchill 14 °F
Dew Point 14 °F
Humidity 81%
Rainfall 0.00 in
Snow Depth Not available.
UV 0 out of 12
Pollen .10 out of 12
Air Quality Not available.
Flu Activity Not available.
METAR KBTV 290754Z AUTO 17003KT 10SM OVC037 M07/M10 A3023 RMK AO2 SLP244 T10721100

More Conditions Fewer Conditions

Pressure 30.25 in
Visibility 10.0 miles
Clouds Overcast 3700 ft
Windchill 14 °F
Dew Point 14 °F
Humidity 81%
Rainfall 0.00 in
Snow Depth Not available.
UV 0 out of 12
Pollen .10 out of 12
Air Quality Not available.
Flu Activity Not available.
METAR KBTV 290754Z AUTO 17003KT 10SM OVC037 M07/M10 A3023 RMK AO2 SLP244 T10721100

More Conditions Fewer Conditions

10-Day Weather Forecast

Almanac

Astronomy

Nov. 29, 2014 Rise Set
Actual Time
Civil Twilight
Nautical Twilight
Astronomical Twilight
Moon
Length of Visible Light
Length of Day
Tomorrow will be .
, % of the Moon is Illuminated

Today's Extremes

State Highs State Lows

Community

WunderPhotos

Upload Photos

1,774,432 photos uploaded!

WunderBlogs® & News

Nearby

Air Quality

  Air Quality AQ Index Pollutant
Not available.

Snow Depth

Station Depth Elevation

Earthquake Activity

City Distance Mag. Time & Date
Minimum magnitude displayed is 2.5.

Coastal Water Temperatures

Place Temperature

Nearby Weather Stations